Time;durP1;ratioP1;P1;durP2;ratioP2;P2;SDS_P1;SDS_P2;PMS_P1;PMS_P2;Temp;Humidity;BMP_temperature;BMP_pressure;BME280_temperature;BME280_humidity;BME280_pressure;Samples;Min_cycle;Max_cycle;Signal;HPM_P1;HPM_P2
2022/03/15 00:00:27;;;;;;;2.83;1.50;;;22.20;53.10;;;;;;4989846;28;20439;-90
2022/03/15 00:02:54;;;;;;;1.90;1.30;;;22.20;53.10;;;;;;4989373;28;20432;-90
2022/03/15 00:05:20;;;;;;;2.50;1.50;;;22.20;53.10;;;;;;4988980;28;20455;-89
2022/03/15 00:07:47;;;;;;;1.40;1.30;;;22.20;53.10;;;;;;4990161;28;20452;-90
2022/03/15 00:10:16;;;;;;;2.00;1.60;;;22.20;53.10;;;;;;4989581;28;20427;-90
2022/03/15 00:12:46;;;;;;;1.70;1.30;;;22.20;53.10;;;;;;4989165;28;20430;-90
2022/03/15 00:15:18;;;;;;;1.43;1.30;;;22.20;53.10;;;;;;4988679;28;20490;-90
2022/03/15 00:17:47;;;;;;;2.03;1.43;;;22.20;53.10;;;;;;4989489;28;20480;-90
2022/03/15 00:20:15;;;;;;;1.70;1.33;;;22.20;53.10;;;;;;4989443;28;20425;-90
2022/03/15 00:22:46;;;;;;;1.70;1.33;;;22.20;53.10;;;;;;5006599;28;20416;-90
2022/03/15 00:25:17;;;;;;;2.20;1.53;;;22.20;53.10;;;;;;5007019;28;20396;-91
2022/03/15 00:27:53;;;;;;;2.63;2.10;;;22.20;53.10;;;;;;4989768;28;20508;-90
2022/03/15 00:30:32;;;;;;;2.20;1.40;;;22.20;53.10;;;;;;5007186;28;20423;-90
2022/03/15 00:33:00;;;;;;;2.27;1.50;;;22.20;53.10;;;;;;5006657;28;20392;-90
2022/03/15 00:35:26;;;;;;;2.50;1.60;;;22.20;53.10;;;;;;4988909;28;20463;-90
2022/03/15 00:37:55;;;;;;;2.57;1.60;;;22.20;53.10;;;;;;4991228;28;20416;-90
2022/03/15 00:40:25;;;;;;;1.70;1.20;;;22.20;53.10;;;;;;4987308;28;20447;-91
2022/03/15 00:42:53;;;;;;;2.80;1.53;;;22.20;53.10;;;;;;4973239;28;20439;-90
2022/03/15 00:45:24;;;;;;;2.17;1.60;;;22.20;53.10;;;;;;4973549;28;20484;-90
2022/03/15 00:47:55;;;;;;;2.33;1.60;;;22.20;53.20;;;;;;4973881;28;20409;-90
2022/03/15 00:50:22;;;;;;;2.17;1.40;;;22.20;53.70;;;;;;4973793;28;20484;-91
2022/03/15 00:52:50;;;;;;;2.17;1.60;;;22.20;53.10;;;;;;4973551;28;20428;-90
2022/03/15 00:55:17;;;;;;;2.10;1.33;;;22.20;53.20;;;;;;4973577;28;20471;-90
2022/03/15 00:57:43;;;;;;;1.80;1.33;;;22.20;53.20;;;;;;4990455;28;20416;-91
2022/03/15 01:00:11;;;;;;;2.80;1.83;;;22.20;53.20;;;;;;4989889;28;20424;-90
2022/03/15 01:02:37;;;;;;;2.50;1.80;;;22.20;53.20;;;;;;4971711;28;20488;-90
2022/03/15 01:05:04;;;;;;;1.80;1.53;;;22.20;53.20;;;;;;4972927;28;20425;-89
2022/03/15 01:07:30;;;;;;;1.90;1.23;;;22.20;53.20;;;;;;4990474;28;20170;-90
2022/03/15 01:09:56;;;;;;;1.90;1.50;;;22.20;53.20;;;;;;4989367;28;20417;-90
2022/03/15 01:12:22;;;;;;;2.23;1.60;;;22.20;53.20;;;;;;4989404;28;20428;-90
2022/03/15 01:14:48;;;;;;;1.97;1.30;;;22.20;53.20;;;;;;4988245;28;20178;-90
2022/03/15 01:17:16;;;;;;;1.90;1.67;;;22.20;53.20;;;;;;4971815;28;20963;-90
2022/03/15 01:19:42;;;;;;;1.47;1.37;;;22.20;53.20;;;;;;4972596;28;20249;-90
2022/03/15 01:22:09;;;;;;;2.43;1.67;;;22.20;53.20;;;;;;4971976;28;20452;-90
2022/03/15 01:24:34;;;;;;;1.70;1.30;;;22.20;53.20;;;;;;4972014;28;20432;-89
2022/03/15 01:27:00;;;;;;;1.73;1.27;;;22.20;53.20;;;;;;4989165;28;20421;-90
2022/03/15 01:29:26;;;;;;;2.23;1.23;;;22.20;53.20;;;;;;4971888;28;20186;-90
2022/03/15 01:31:54;;;;;;;1.80;1.50;;;22.10;53.20;;;;;;4971703;28;20549;-90
2022/03/15 01:34:20;;;;;;;1.80;1.37;;;22.20;53.30;;;;;;4987424;28;20256;-90
2022/03/15 01:36:46;;;;;;;2.00;1.40;;;22.10;53.20;;;;;;4970695;28;20471;-90
2022/03/15 01:39:12;;;;;;;1.90;1.40;;;22.10;53.20;;;;;;4989284;28;20413;-90
2022/03/15 01:41:41;;;;;;;2.20;1.40;;;22.10;53.20;;;;;;4972055;28;20193;-90
2022/03/15 01:44:18;;;;;;;1.43;1.30;;;22.10;53.20;;;;;;4971463;28;20445;-90
2022/03/15 01:46:45;;;;;;;2.03;1.50;;;22.10;53.20;;;;;;4971192;28;20927;-89
2022/03/15 01:49:13;;;;;;;2.83;1.80;;;22.10;53.20;;;;;;4970817;28;20433;-90
2022/03/15 01:51:40;;;;;;;1.70;1.40;;;22.10;53.20;;;;;;4971640;28;20512;-90
2022/03/15 01:54:10;;;;;;;1.70;1.30;;;22.10;53.30;;;;;;4971783;28;20436;-90
2022/03/15 01:56:40;;;;;;;1.83;1.17;;;22.10;53.20;;;;;;4988381;28;20457;-90
2022/03/15 01:59:08;;;;;;;1.73;1.40;;;22.10;53.20;;;;;;4988461;28;20444;-90
2022/03/15 02:01:34;;;;;;;1.53;1.10;;;22.10;53.30;;;;;;4971532;28;20480;-90
2022/03/15 02:03:59;;;;;;;2.10;1.67;;;22.10;53.20;;;;;;4986900;28;20440;-91
2022/03/15 02:07:08;;;;;;;2.43;2.23;;;22.10;53.20;;;;;;4975968;28;20420;-90
2022/03/15 02:09:34;;;;;;;2.53;1.37;;;22.10;53.20;;;;;;4975306;28;20181;-90
2022/03/15 02:12:00;;;;;;;1.50;1.40;;;22.10;53.30;;;;;;4971146;28;20436;-90
2022/03/15 02:14:26;;;;;;;1.97;1.50;;;22.10;53.30;;;;;;4988528;28;20772;-90
2022/03/15 02:16:52;;;;;;;2.53;1.30;;;22.10;53.30;;;;;;4971362;28;20213;-90
2022/03/15 02:19:18;;;;;;;1.63;1.33;;;22.10;53.30;;;;;;4971238;28;20448;-90
2022/03/15 02:25:06;;;;;;;1.53;1.40;;;22.10;53.30;;;;;;4988139;28;20165;-90
2022/03/15 02:27:32;;;;;;;1.87;1.50;;;22.00;53.30;;;;;;4971579;28;20505;-90
2022/03/15 02:29:58;;;;;;;3.70;1.23;;;22.10;53.40;;;;;;4970720;28;20476;-90
2022/03/15 02:32:24;;;;;;;1.20;1.00;;;22.00;53.30;;;;;;4988079;28;20409;-90
2022/03/15 02:34:51;;;;;;;1.90;1.40;;;22.10;53.30;;;;;;4987179;28;20205;-90
2022/03/15 02:40:38;;;;;;;1.70;1.50;;;22.10;53.30;;;;;;4979716;28;20440;-90
2022/03/15 02:46:34;;;;;;;1.67;1.40;;;22.10;53.30;;;;;;4981807;28;20213;-90
2022/03/15 02:49:00;;;;;;;1.87;1.33;;;22.00;53.30;;;;;;4988099;28;20397;-91
2022/03/15 02:51:27;;;;;;;1.90;1.20;;;22.00;53.30;;;;;;4970554;28;20409;-90
2022/03/15 02:53:53;;;;;;;1.40;1.30;;;22.00;53.30;;;;;;4988276;28;20436;-91
2022/03/15 02:56:21;;;;;;;1.80;1.27;;;22.00;53.30;;;;;;4970528;28;20463;-91
2022/03/15 02:58:46;;;;;;;1.80;1.40;;;22.00;53.30;;;;;;4987910;28;20785;-90
2022/03/15 03:01:12;;;;;;;1.70;1.40;;;22.00;53.30;;;;;;4970619;28;20421;-90
2022/03/15 03:07:01;;;;;;;1.67;1.33;;;22.10;53.30;;;;;;4987743;28;20201;-90
2022/03/15 03:09:28;;;;;;;1.73;1.10;;;22.00;53.30;;;;;;4965125;29;20449;-91
2022/03/15 03:11:54;;;;;;;1.73;1.40;;;22.00;53.30;;;;;;4950648;28;20521;-90
2022/03/15 03:14:21;;;;;;;1.47;1.30;;;22.00;53.30;;;;;;4987683;28;20423;-91
2022/03/15 03:16:47;;;;;;;1.80;1.30;;;22.00;53.30;;;;;;4987130;28;20264;-90
2022/03/15 03:19:13;;;;;;;1.63;1.20;;;22.00;53.30;;;;;;4986444;28;20417;-91
2022/03/15 03:21:40;;;;;;;2.80;1.30;;;22.00;53.30;;;;;;4970663;28;20417;-90
2022/03/15 03:24:07;;;;;;;2.47;1.30;;;22.00;53.30;;;;;;4969856;28;20186;-90
2022/03/15 03:26:37;;;;;;;1.47;1.30;;;22.00;53.30;;;;;;4969689;28;20421;-90
2022/03/15 03:29:11;;;;;;;1.90;1.70;;;22.00;53.30;;;;;;4970833;28;20425;-90
2022/03/15 03:31:39;;;;;;;1.60;1.17;;;22.00;53.30;;;;;;4970647;28;20416;-90
2022/03/15 03:34:06;;;;;;;2.00;1.30;;;22.00;53.30;;;;;;4968962;28;20796;-90
2022/03/15 03:36:34;;;;;;;1.60;1.40;;;22.00;53.30;;;;;;4951185;29;20511;-91
2022/03/15 03:39:00;;;;;;;1.80;1.43;;;22.00;53.30;;;;;;4950805;29;20422;-90
2022/03/15 03:41:26;;;;;;;1.53;1.23;;;22.00;53.30;;;;;;4951118;29;20419;-91
2022/03/15 03:43:52;;;;;;;2.10;1.10;;;22.00;53.30;;;;;;4967935;29;20444;-90
2022/03/15 03:46:18;;;;;;;2.30;1.20;;;22.00;53.30;;;;;;4950170;29;20178;-91
2022/03/15 03:48:44;;;;;;;1.67;1.30;;;22.00;53.30;;;;;;4950023;29;20191;-90
2022/03/15 03:51:13;;;;;;;1.73;1.63;;;22.00;53.30;;;;;;4950103;29;20190;-90
2022/03/15 03:53:42;;;;;;;2.40;1.57;;;22.00;53.30;;;;;;4969784;28;20495;-91
2022/03/15 03:59:30;;;;;;;1.20;1.00;;;22.00;53.30;;;;;;5005610;28;20511;-91
2022/03/15 04:01:56;;;;;;;1.20;1.10;;;22.00;53.30;;;;;;4988839;28;20425;-91
2022/03/15 04:04:22;;;;;;;1.70;1.40;;;22.00;53.30;;;;;;4989097;28;20201;-91
2022/03/15 04:06:48;;;;;;;1.40;1.30;;;22.00;53.30;;;;;;4989014;28;20181;-90
2022/03/15 04:09:14;;;;;;;1.90;1.40;;;22.00;53.30;;;;;;5005421;28;20470;-91
2022/03/15 04:11:41;;;;;;;1.43;1.00;;;22.00;53.30;;;;;;5006428;28;20311;-90
2022/03/15 04:14:13;;;;;;;1.57;1.47;;;22.00;53.20;;;;;;4992227;28;20706;-90
2022/03/15 04:16:39;;;;;;;1.70;1.20;;;22.00;53.20;;;;;;4992725;28;20828;-91
2022/03/15 04:19:05;;;;;;;1.73;1.27;;;22.00;53.20;;;;;;4992401;28;20416;-90
2022/03/15 04:22:14;;;;;;;1.77;1.17;;;22.00;53.20;;;;;;4992192;28;20524;-91
2022/03/15 04:24:40;;;;;;;2.23;1.67;;;22.10;53.20;;;;;;4992076;28;20199;-91
2022/03/15 04:27:06;;;;;;;1.70;1.20;;;22.00;53.20;;;;;;4992697;28;20424;-92
2022/03/15 04:29:32;;;;;;;2.00;1.57;;;22.00;53.20;;;;;;4993019;28;20180;-90
2022/03/15 04:31:57;;;;;;;1.57;1.07;;;22.00;53.20;;;;;;5010135;28;20184;-91
2022/03/15 04:37:45;;;;;;;1.37;1.10;;;22.00;53.20;;;;;;5009100;28;20165;-90
2022/03/15 04:40:12;;;;;;;1.50;1.40;;;22.00;53.20;;;;;;4992084;28;20400;-90
2022/03/15 04:42:38;;;;;;;1.60;1.33;;;22.00;53.20;;;;;;5009527;28;20392;-90
2022/03/15 04:45:05;;;;;;;1.57;1.13;;;22.00;53.20;;;;;;4992122;28;20432;-91
2022/03/15 04:47:31;;;;;;;1.73;1.20;;;22.00;53.20;;;;;;4992233;28;20435;-90
2022/03/15 04:49:59;;;;;;;1.47;1.03;;;22.10;53.20;;;;;;5010052;28;20411;-91
2022/03/15 04:52:25;;;;;;;3.10;1.10;;;22.00;53.10;;;;;;5009908;28;20169;-91
2022/03/15 04:54:51;;;;;;;1.40;1.30;;;22.00;53.10;;;;;;4991157;28;20483;-90
2022/03/15 04:57:17;;;;;;;1.20;1.10;;;22.00;53.10;;;;;;5009165;28;20180;-90
2022/03/15 04:59:46;;;;;;;1.40;1.30;;;22.00;53.10;;;;;;4991684;28;20301;-90
2022/03/15 05:02:11;;;;;;;1.97;1.23;;;22.10;53.10;;;;;;5008978;28;20396;-91
2022/03/15 05:04:37;;;;;;;1.40;1.10;;;22.00;53.10;;;;;;4992410;28;20408;-90
2022/03/15 05:07:21;;;;;;;1.60;1.10;;;22.10;53.70;;;;;;4991681;28;20248;-91
2022/03/15 05:12:34;;;;;;;1.63;1.43;;;22.00;53.00;;;;;;5009321;28;20443;-90
2022/03/15 05:14:59;;;;;;;1.73;1.27;;;22.00;53.10;;;;;;5009031;28;20417;-91
2022/03/15 05:20:47;;;;;;;1.67;1.10;;;22.00;53.10;;;;;;5008652;28;20161;-90
2022/03/15 05:23:34;;;;;;;1.67;1.20;;;22.00;53.10;;;;;;4990646;28;20424;-91
2022/03/15 05:26:01;;;;;;;1.57;1.20;;;22.00;53.10;;;;;;4991860;28;20173;-91
2022/03/15 05:28:28;;;;;;;1.63;1.40;;;22.00;53.20;;;;;;5008578;28;20431;-91
2022/03/15 05:30:53;;;;;;;1.57;1.20;;;22.00;53.20;;;;;;4974736;28;20428;-91
2022/03/15 05:33:19;;;;;;;1.60;1.10;;;22.00;53.20;;;;;;4990601;28;20423;-91
2022/03/15 05:36:04;;;;;;;1.30;1.00;;;22.00;53.10;;;;;;4991303;28;20212;-90
2022/03/15 05:38:31;;;;;;;1.50;1.10;;;22.00;53.10;;;;;;4991986;28;20462;-89
2022/03/15 05:40:56;;;;;;;1.30;1.20;;;22.00;53.10;;;;;;4992030;28;20945;-89
2022/03/15 05:43:22;;;;;;;1.20;1.10;;;22.00;53.20;;;;;;4992108;28;20416;-90
2022/03/15 05:45:50;;;;;;;1.97;1.30;;;22.00;53.70;;;;;;4991517;28;20181;-89
2022/03/15 05:48:17;;;;;;;1.83;1.33;;;22.00;53.20;;;;;;5009135;28;20420;-90
2022/03/15 05:50:43;;;;;;;2.77;1.50;;;22.00;53.10;;;;;;4991238;28;20435;-89
2022/03/15 05:53:09;;;;;;;1.60;1.20;;;22.00;53.10;;;;;;4991475;28;20420;-90
2022/03/15 05:55:35;;;;;;;1.80;1.27;;;22.00;53.20;;;;;;5008909;28;20490;-90
2022/03/15 05:58:02;;;;;;;1.47;1.20;;;22.00;53.20;;;;;;4990730;28;20181;-90
2022/03/15 06:00:28;;;;;;;1.87;1.33;;;22.00;53.20;;;;;;4990759;28;20427;-90
2022/03/15 06:02:54;;;;;;;2.13;1.70;;;22.00;53.20;;;;;;4991751;28;20443;-90
2022/03/15 06:06:02;;;;;;;1.90;1.40;;;22.00;53.10;;;;;;5008637;28;20849;-90
2022/03/15 06:08:28;;;;;;;1.33;1.23;;;22.00;53.10;;;;;;5008525;28;20893;-90
2022/03/15 06:14:47;;;;;;;1.67;1.37;;;22.00;53.10;;;;;;4988843;28;20180;-91
2022/03/15 06:17:13;;;;;;;1.30;1.00;;;22.00;53.10;;;;;;4970079;28;20503;-89
2022/03/15 06:19:39;;;;;;;1.90;1.30;;;22.00;53.20;;;;;;4986510;28;20459;-90
2022/03/15 06:22:05;;;;;;;1.70;1.20;;;22.00;53.20;;;;;;4985823;28;20170;-91
2022/03/15 06:24:31;;;;;;;1.70;1.20;;;22.00;53.20;;;;;;4969907;28;20575;-89
2022/03/15 06:27:00;;;;;;;1.13;1.00;;;22.00;53.20;;;;;;4970737;28;20423;-90
2022/03/15 06:29:27;;;;;;;2.43;1.20;;;22.00;53.10;;;;;;4987349;28;20415;-90
2022/03/15 06:31:53;;;;;;;1.43;1.27;;;22.00;53.20;;;;;;4987680;28;20409;-90
2022/03/15 06:34:20;;;;;;;1.50;1.20;;;22.00;53.10;;;;;;4969557;28;20459;-90
2022/03/15 06:36:46;;;;;;;2.27;1.73;;;22.10;53.20;;;;;;4986234;28;20528;-90
2022/03/15 06:39:12;;;;;;;4.30;1.50;;;22.00;53.10;;;;;;4987254;28;20911;-90
2022/03/15 06:41:39;;;;;;;1.93;1.73;;;22.10;53.20;;;;;;4969116;28;20428;-90
2022/03/15 06:44:06;;;;;;;2.00;1.60;;;22.10;53.10;;;;;;4969409;28;20178;-90
2022/03/15 06:46:33;;;;;;;1.77;1.57;;;22.10;53.10;;;;;;4969508;28;20463;-90
2022/03/15 06:48:59;;;;;;;2.10;1.20;;;22.10;53.10;;;;;;4969290;28;20417;-90
2022/03/15 06:51:25;;;;;;;1.30;1.20;;;22.10;53.00;;;;;;4969285;28;20417;-90
2022/03/15 06:53:52;;;;;;;1.70;1.20;;;22.10;53.00;;;;;;4969458;28;21023;-91
2022/03/15 06:56:18;;;;;;;1.60;1.50;;;22.10;53.00;;;;;;4968349;28;20461;-90
2022/03/15 06:58:44;;;;;;;1.40;1.13;;;22.10;53.00;;;;;;4969083;28;20410;-91
2022/03/15 07:01:10;;;;;;;1.47;1.03;;;22.10;53.00;;;;;;4968767;28;20893;-90
2022/03/15 07:03:36;;;;;;;1.73;1.40;;;22.10;53.00;;;;;;4968599;28;20235;-91
2022/03/15 07:06:10;;;;;;;1.50;1.20;;;22.10;53.00;;;;;;4986381;28;20437;-90
2022/03/15 07:08:36;;;;;;;1.60;1.37;;;22.20;53.00;;;;;;4986116;28;20220;-89
2022/03/15 07:11:05;;;;;;;1.67;1.17;;;22.20;53.00;;;;;;4969195;28;21013;-91
2022/03/15 07:13:31;;;;;;;1.40;1.20;;;22.20;53.00;;;;;;4969038;28;20624;-89
2022/03/15 07:15:57;;;;;;;1.60;1.20;;;22.20;53.00;;;;;;4968973;28;20472;-91
2022/03/15 07:18:22;;;;;;;1.57;1.17;;;22.20;53.00;;;;;;4985993;28;20173;-91
2022/03/15 07:20:48;;;;;;;2.30;1.77;;;22.20;53.00;;;;;;4968966;28;20260;-90
2022/03/15 07:23:14;;;;;;;1.20;1.10;;;22.20;53.00;;;;;;4969319;28;20180;-92
2022/03/15 07:25:40;;;;;;;1.60;1.30;;;22.20;53.00;;;;;;4968285;28;20367;-91
2022/03/15 07:28:12;;;;;;;1.20;1.10;;;22.20;52.90;;;;;;4985168;28;20192;-91
2022/03/15 07:30:46;;;;;;;1.93;1.50;;;22.20;53.00;;;;;;4985864;28;20217;-90
2022/03/15 07:33:12;;;;;;;1.43;1.27;;;22.20;53.00;;;;;;4968597;28;20405;-90
2022/03/15 07:35:38;;;;;;;1.83;1.40;;;22.20;53.00;;;;;;4968396;28;20468;-91
2022/03/15 07:38:03;;;;;;;1.83;1.20;;;22.20;53.00;;;;;;4985377;28;20174;-90
2022/03/15 07:40:31;;;;;;;1.30;1.13;;;22.20;53.00;;;;;;4986095;28;20185;-91
2022/03/15 07:42:57;;;;;;;1.70;1.10;;;22.20;53.00;;;;;;4986028;28;20162;-91
2022/03/15 07:45:23;;;;;;;2.80;1.30;;;22.20;53.00;;;;;;4985949;28;20389;-90
2022/03/15 07:47:50;;;;;;;2.03;1.33;;;22.20;52.90;;;;;;4949030;29;20425;-91
2022/03/15 07:50:17;;;;;;;2.57;1.50;;;22.20;52.90;;;;;;4965506;28;20780;-91
2022/03/15 07:52:47;;;;;;;2.10;1.23;;;22.20;52.90;;;;;;4949072;29;20422;-91
2022/03/15 07:55:14;;;;;;;1.70;1.13;;;22.20;52.90;;;;;;4967985;28;20474;-91
2022/03/15 07:57:39;;;;;;;1.13;0.90;;;22.20;53.00;;;;;;4986446;28;20778;-91
2022/03/15 08:00:06;;;;;;;1.33;1.20;;;22.20;53.00;;;;;;4969059;28;20424;-91
2022/03/15 08:02:32;;;;;;;1.23;1.10;;;22.20;53.00;;;;;;4968387;28;20308;-91
2022/03/15 08:04:58;;;;;;;1.90;1.30;;;22.20;52.90;;;;;;4968796;28;20435;-91
2022/03/15 08:07:24;;;;;;;1.50;1.20;;;22.20;53.00;;;;;;4968686;28;20178;-91
2022/03/15 08:09:50;;;;;;;1.40;1.30;;;22.20;52.90;;;;;;4968336;28;20495;-91
2022/03/15 08:12:18;;;;;;;2.07;1.77;;;22.30;53.00;;;;;;4971562;28;20433;-91
2022/03/15 08:14:47;;;;;;;1.80;1.30;;;22.20;52.90;;;;;;4932987;29;20251;-91
2022/03/15 08:17:15;;;;;;;1.47;1.30;;;22.20;52.90;;;;;;4964869;28;20453;-91
2022/03/15 08:19:41;;;;;;;1.50;1.17;;;22.30;53.00;;;;;;4965285;28;20429;-90
2022/03/15 08:22:07;;;;;;;2.13;1.50;;;22.30;53.00;;;;;;4968042;28;20472;-91
2022/03/15 08:24:32;;;;;;;1.50;1.27;;;22.30;53.00;;;;;;4967848;28;20196;-91
2022/03/15 08:27:15;;;;;;;1.40;1.00;;;22.30;53.00;;;;;;4985340;28;20429;-91
2022/03/15 08:29:41;;;;;;;1.20;1.00;;;22.30;53.00;;;;;;4986176;28;20620;-91
2022/03/15 08:32:07;;;;;;;1.83;1.43;;;22.20;53.00;;;;;;4985742;28;20456;-91
2022/03/15 08:34:33;;;;;;;1.87;1.20;;;22.20;53.00;;;;;;4968165;28;20663;-90
2022/03/15 08:36:59;;;;;;;1.10;1.00;;;22.30;53.00;;;;;;4967926;28;20469;-91
2022/03/15 08:39:25;;;;;;;2.13;1.50;;;22.20;53.00;;;;;;4967984;28;20421;-91
2022/03/15 08:41:51;;;;;;;1.90;1.13;;;22.30;53.10;;;;;;4968760;28;20196;-91
2022/03/15 08:44:20;;;;;;;1.73;1.37;;;22.30;53.10;;;;;;4965357;29;20222;-91
2022/03/15 08:46:47;;;;;;;1.73;1.37;;;22.30;53.10;;;;;;4966502;28;20831;-92
2022/03/15 08:49:14;;;;;;;1.50;1.23;;;22.30;53.10;;;;;;4968720;28;20456;-90
2022/03/15 08:51:41;;;;;;;1.27;1.00;;;22.30;53.10;;;;;;4985705;28;20420;-91
2022/03/15 08:54:07;;;;;;;1.30;1.20;;;22.30;53.10;;;;;;4968489;28;20884;-91
2022/03/15 08:56:33;;;;;;;1.60;1.10;;;22.30;53.10;;;;;;4985050;28;20457;-91
2022/03/15 08:58:59;;;;;;;1.67;1.40;;;22.30;53.10;;;;;;4968493;28;20522;-91
2022/03/15 09:01:27;;;;;;;1.60;1.10;;;22.30;53.10;;;;;;4968982;29;20170;-91
2022/03/15 09:03:53;;;;;;;1.73;1.17;;;22.30;53.10;;;;;;4969672;28;20179;-91
2022/03/15 09:06:19;;;;;;;1.40;1.10;;;22.30;53.10;;;;;;4988984;28;20420;-91
2022/03/15 09:08:46;;;;;;;2.43;1.23;;;22.20;53.00;;;;;;4971123;28;20284;-91
2022/03/15 09:11:12;;;;;;;2.00;1.27;;;22.30;53.10;;;;;;4969527;29;20186;-91
2022/03/15 09:13:38;;;;;;;1.60;1.17;;;22.30;53.10;;;;;;4984208;28;20430;-91
2022/03/15 09:16:07;;;;;;;1.63;1.23;;;22.30;53.10;;;;;;4984387;28;20206;-91
2022/03/15 09:18:32;;;;;;;1.17;1.03;;;22.20;53.10;;;;;;4968797;29;20182;-91
2022/03/15 09:20:59;;;;;;;1.83;1.73;;;22.20;53.10;;;;;;4972108;28;20426;-91
2022/03/15 09:23:24;;;;;;;1.40;1.20;;;22.20;53.10;;;;;;4972367;28;20178;-87
2022/03/15 09:25:52;;;;;;;1.40;1.20;;;22.20;53.10;;;;;;4972662;28;20425;-87
2022/03/15 09:28:17;;;;;;;1.20;0.90;;;22.30;53.10;;;;;;4989523;28;20170;-87
2022/03/15 09:30:46;;;;;;;1.63;1.20;;;22.20;53.10;;;;;;4971823;28;20428;-87
2022/03/15 09:33:12;;;;;;;1.10;1.00;;;22.20;53.10;;;;;;4971726;28;20185;-87
2022/03/15 09:35:39;;;;;;;1.10;1.00;;;22.20;53.10;;;;;;4989711;28;20466;-86
2022/03/15 09:38:07;;;;;;;1.53;1.03;;;22.20;53.10;;;;;;4989280;28;20765;-87
2022/03/15 09:40:33;;;;;;;1.30;1.10;;;22.20;53.10;;;;;;4970881;28;20930;-87
2022/03/15 09:43:04;;;;;;;1.47;1.13;;;22.20;53.10;;;;;;4989635;28;20831;-87
2022/03/15 09:45:33;;;;;;;1.20;1.00;;;22.20;53.10;;;;;;4971839;28;20461;-87
2022/03/15 09:48:02;;;;;;;1.60;1.20;;;22.30;53.20;;;;;;4988002;28;20497;-87
2022/03/15 09:50:28;;;;;;;1.50;1.10;;;22.20;53.10;;;;;;4987927;28;20436;-88
2022/03/15 09:52:56;;;;;;;2.03;1.50;;;22.20;53.10;;;;;;4989340;28;20417;-87
2022/03/15 09:55:24;;;;;;;1.50;1.30;;;22.20;53.10;;;;;;4988500;28;20208;-87
2022/03/15 09:57:51;;;;;;;1.77;1.30;;;22.20;53.10;;;;;;4971694;28;20444;-87
2022/03/15 10:00:17;;;;;;;1.93;1.20;;;22.20;53.10;;;;;;4971868;28;20433;-87
2022/03/15 10:02:44;;;;;;;1.70;1.30;;;22.20;53.70;;;;;;4987814;28;20943;-87
2022/03/15 10:05:12;;;;;;;1.33;1.10;;;22.20;53.10;;;;;;4971639;28;20431;-87
2022/03/15 10:07:38;;;;;;;1.43;1.27;;;22.20;53.10;;;;;;4989823;28;20409;-87
2022/03/15 10:10:15;;;;;;;1.83;1.43;;;22.20;53.10;;;;;;4972399;28;20446;-87
2022/03/15 10:12:41;;;;;;;1.30;1.10;;;22.20;53.10;;;;;;4969154;29;20402;-86
2022/03/15 10:15:19;;;;;;;1.20;1.10;;;22.20;53.10;;;;;;4952134;29;20418;-87
2022/03/15 10:17:53;;;;;;;2.13;1.10;;;22.20;53.10;;;;;;4952235;29;20429;-86
2022/03/15 10:20:23;;;;;;;1.70;1.20;;;22.20;53.70;;;;;;4952041;29;20485;-86
2022/03/15 10:22:51;;;;;;;1.50;1.27;;;22.20;53.20;;;;;;4968459;29;20477;-87
2022/03/15 10:25:17;;;;;;;1.37;1.07;;;22.20;53.20;;;;;;4969086;29;20413;-86
2022/03/15 10:34:00;;;;;;;1.00;0.80;;;22.20;53.20;;;;;;4972433;29;20414;-88
2022/03/15 10:36:36;;;;;;;2.00;1.40;;;22.20;53.20;;;;;;4955486;29;20525;-88
2022/03/15 10:39:02;;;;;;;1.40;1.00;;;22.20;53.30;;;;;;4972477;29;20398;-88
2022/03/15 10:41:28;;;;;;;1.10;1.00;;;22.20;53.30;;;;;;4972532;29;20433;-87
2022/03/15 10:43:54;;;;;;;1.10;1.00;;;22.20;53.30;;;;;;4955545;29;20414;-88
2022/03/15 10:46:25;;;;;;;1.63;1.10;;;22.20;53.30;;;;;;4954264;29;20214;-87
2022/03/15 10:49:03;;;;;;;1.30;1.00;;;22.20;53.20;;;;;;4955175;29;20853;-88
2022/03/15 10:51:29;;;;;;;1.27;0.90;;;22.20;53.20;;;;;;4954613;29;20432;-88
2022/03/15 10:54:02;;;;;;;1.93;1.20;;;22.20;53.20;;;;;;4955461;29;20426;-88
2022/03/15 10:56:28;;;;;;;1.57;1.10;;;22.20;53.30;;;;;;4954956;29;20469;-88
2022/03/15 10:59:01;;;;;;;1.20;1.00;;;22.20;53.30;;;;;;4954603;29;20490;-88
2022/03/15 11:01:40;;;;;;;1.47;1.20;;;22.20;53.30;;;;;;4955325;29;20414;-88
2022/03/15 11:04:09;;;;;;;1.40;1.10;;;22.20;53.30;;;;;;4955171;29;20414;-88
2022/03/15 11:06:46;;;;;;;1.30;1.20;;;22.20;53.30;;;;;;4954784;29;20426;-88
2022/03/15 11:09:31;;;;;;;1.30;1.10;;;22.20;53.30;;;;;;4971463;29;20443;-91
2022/03/15 11:12:09;;;;;;;1.10;0.90;;;22.20;53.30;;;;;;4950859;29;20413;-90
2022/03/15 11:14:45;;;;;;;1.30;1.20;;;22.20;53.30;;;;;;4967681;29;20402;-90
2022/03/15 11:17:16;;;;;;;1.20;1.10;;;22.20;53.30;;;;;;4967630;29;20481;-91
2022/03/15 11:19:47;;;;;;;1.40;1.00;;;22.20;53.30;;;;;;4949799;29;20442;-91
2022/03/15 11:22:15;;;;;;;1.97;1.10;;;22.20;53.30;;;;;;4949270;29;20410;-90
2022/03/15 11:24:50;;;;;;;2.80;1.30;;;22.20;53.30;;;;;;4967342;29;20410;-90
2022/03/15 11:27:16;;;;;;;1.50;1.40;;;22.20;53.30;;;;;;4967764;29;20403;-91
2022/03/15 11:29:47;;;;;;;1.40;1.13;;;22.20;53.30;;;;;;4951155;29;20410;-90
2022/03/15 11:32:14;;;;;;;1.10;1.00;;;22.10;53.20;;;;;;4949894;29;20421;-91
2022/03/15 11:34:41;;;;;;;3.90;1.47;;;22.20;53.80;;;;;;4967335;29;20445;-90
2022/03/15 11:37:12;;;;;;;1.40;1.10;;;22.20;53.30;;;;;;4967542;29;20536;-90
2022/03/15 11:39:42;;;;;;;1.30;1.03;;;22.20;53.30;;;;;;4967462;29;20398;-90
2022/03/15 11:42:14;;;;;;;2.80;1.20;;;22.20;53.20;;;;;;4968301;29;20414;-90
2022/03/15 11:45:15;;;;;;;1.23;1.10;;;22.20;53.80;;;;;;4950372;29;20466;-91
2022/03/15 11:47:45;;;;;;;1.73;1.23;;;22.20;53.30;;;;;;4967630;29;20390;-90
2022/03/15 11:50:26;;;;;;;1.93;1.40;;;22.20;53.30;;;;;;4950351;29;20509;-90
2022/03/15 11:53:03;;;;;;;2.57;1.50;;;22.20;53.30;;;;;;4950830;29;20513;-89
2022/03/15 11:56:15;;;;;;;2.40;1.60;;;22.20;53.30;;;;;;4950682;29;20461;-90
2022/03/15 11:59:02;;;;;;;2.10;1.27;;;22.20;53.30;;;;;;4928774;29;20440;-90
2022/03/15 12:01:30;;;;;;;4.90;2.30;;;22.20;53.30;;;;;;4949900;29;20414;-90
2022/03/15 12:03:58;;;;;;;3.67;2.10;;;22.20;53.40;;;;;;4950868;29;20409;-90
2022/03/15 12:06:30;;;;;;;3.60;1.83;;;22.20;53.40;;;;;;4950076;29;20476;-90
2022/03/15 12:09:00;;;;;;;3.30;2.27;;;22.20;53.40;;;;;;4967124;29;20449;-91
2022/03/15 12:11:33;;;;;;;4.43;2.20;;;22.20;53.40;;;;;;4967322;29;20399;-91
2022/03/15 12:14:07;;;;;;;5.10;2.90;;;22.20;53.50;;;;;;4966862;29;20398;-90
2022/03/15 12:16:42;;;;;;;3.23;2.10;;;22.20;53.50;;;;;;4949105;29;20552;-91
2022/03/15 12:19:15;;;;;;;2.97;2.67;;;22.20;53.50;;;;;;4949730;29;20425;-91
2022/03/15 12:22:09;;;;;;;3.63;2.10;;;22.20;53.70;;;;;;4966523;29;20402;-91
2022/03/15 12:24:39;;;;;;;5.20;2.83;;;22.20;53.60;;;;;;4948085;29;20417;-91
2022/03/15 12:27:16;;;;;;;3.30;2.37;;;22.20;53.60;;;;;;4949696;29;20437;-91
2022/03/15 12:30:18;;;;;;;5.30;2.30;;;22.20;53.70;;;;;;4949275;29;20488;-91
2022/03/15 12:32:57;;;;;;;7.73;3.30;;;22.20;53.70;;;;;;4955213;28;20429;-91
2022/03/15 12:35:28;;;;;;;3.40;2.90;;;22.10;53.60;;;;;;4969351;29;20441;-91
2022/03/15 12:38:05;;;;;;;5.70;3.47;;;22.20;53.70;;;;;;4969416;29;20410;-91
2022/03/15 12:40:31;;;;;;;4.40;3.03;;;22.20;53.70;;;;;;4952627;29;20429;-92
2022/03/15 12:43:01;;;;;;;5.53;2.83;;;22.20;53.80;;;;;;4952954;29;20417;-91
2022/03/15 12:45:29;;;;;;;6.33;3.57;;;22.20;53.80;;;;;;4952880;29;20190;-90
2022/03/15 12:48:05;;;;;;;3.93;3.37;;;22.20;53.80;;;;;;4952636;29;20425;-91
2022/03/15 12:50:31;;;;;;;6.17;3.30;;;22.20;53.80;;;;;;4952847;29;20420;-92
2022/03/15 12:53:12;;;;;;;7.20;3.13;;;22.10;53.70;;;;;;4968734;29;20420;-91
2022/03/15 12:55:42;;;;;;;5.50;3.20;;;22.20;53.80;;;;;;4969971;29;20467;-91
2022/03/15 12:58:13;;;;;;;5.43;3.00;;;22.20;53.90;;;;;;4952007;29;20429;-91
2022/03/15 13:00:45;;;;;;;4.60;3.20;;;22.10;53.80;;;;;;4952011;29;20521;-92
2022/03/15 13:03:13;;;;;;;6.77;2.73;;;22.10;53.80;;;;;;4951888;29;20426;-91
2022/03/15 13:05:44;;;;;;;5.93;3.13;;;22.20;53.90;;;;;;4952539;29;20508;-92
2022/03/15 13:08:16;;;;;;;4.80;3.40;;;22.20;53.90;;;;;;4952665;29;20421;-90
2022/03/15 13:10:47;;;;;;;3.43;2.70;;;22.10;53.80;;;;;;4951998;29;20777;-91
2022/03/15 13:13:31;;;;;;;3.53;2.80;;;22.10;54.30;;;;;;4969992;29;20881;-91
2022/03/15 13:16:11;;;;;;;5.67;3.30;;;22.20;53.80;;;;;;4969209;29;20803;-91
2022/03/15 13:18:41;;;;;;;6.17;3.37;;;22.10;53.70;;;;;;4969381;29;20425;-91
2022/03/15 13:21:12;;;;;;;5.73;2.77;;;22.10;54.30;;;;;;4952628;29;20476;-91
2022/03/15 13:23:45;;;;;;;3.83;2.63;;;22.10;53.70;;;;;;4951896;29;20417;-91
2022/03/15 13:26:19;;;;;;;6.03;2.93;;;22.10;53.70;;;;;;4951747;29;20897;-91
2022/03/15 13:28:52;;;;;;;7.00;3.00;;;22.20;53.70;;;;;;4952677;29;20417;-91
2022/03/15 13:31:24;;;;;;;5.77;2.80;;;22.20;54.30;;;;;;4952217;29;20414;-91
2022/03/15 13:33:56;;;;;;;7.43;3.10;;;22.20;53.70;;;;;;4951925;29;20509;-91